Logo AVAMET
Benvolgut visitant, si us plau, ingressa Recuperar contrasenya

Montanejos Campuebla Apartamentos

Dades diàries. Acumulats / Últims 30 dies disponibles

Data Temperatura (°C) Humitat rel. (%) Pressió rel. (hPa) Vent (km/h) Precipitació
Mínima Mitjana Màxima Amplitud
tèrmica
Mínima Mitjana Màxima Mínima Mitjana Màxima Predom. Mitjana Ràfega
màxima
Total
(mm)
Índex-n
Mínima Mitjana Màxima Mínima Mitjana Màxima n
0 a 1
P0 max
mm 5'
Dades mensuals acumulades fins l'últim dia disponible
11/2019 5,8 9,8 14,4 13,7 10,6 17,2 24,2 18,4 37 62 97 992 1.006 1.017   3,9 53,1 1,8
Dades anuals acumulades fins l'últim dia disponible
2019 -0,6 11,1 21,0 17,6 9,3 24,7 39,4 40,0 14 69 100 992 1.012 1.027   3,6 64,4 422,6
Últims 30 dies disponibles
11-11-2019 9,2     12,3     13,7 4,5 NW 2,1 43,5 0,0
10-11-2019 8,3     9,6     10,6 2,3 NW 2,1 41,8 0,0
09-11-2019 8,4     10,8     12,4 4,0 52 57 66 1.013 1.014 1.016 ESE 0,5 20,9 0,0
08-11-2019 7,6     9,9     12,2 4,6 47 53 58 1.006 1.008 1.008 NW 1,6 48,3 0,0
07-11-2019 5,8     10,6     16,8 11,0 46 69 87 1.003 1.006 1.009 S 1,6 30,6 0,0
06-11-2019 6,1     12,1     16,3 10,2 44 60 84 1.007 1.009 1.010 NW 8,4 49,9 0,0
05-11-2019 10,2     14,0     17,1 6,9 43 58 79 1.000 1.003 1.007 SSW 7,7 49,9 0,0
04-11-2019 14,4     17,9     21,5 7,1 46 57 75 1.000 1.003 1.005 WNW 6,4 38,6 0,0
03-11-2019 13,9     17,3     20,8 6,9 37 53 82 992 998 1.005 WNW 7,4 53,1 1,6
02-11-2019 12,4     17,5     23,6 11,2 47 74 97 999 1.004 1.008 SW 3,2 33,8 0,0
01-11-2019 11,1     18,3     24,2 13,1 53 75 96 1.009 1.013 1.017 NNE 2,3 27,4 0,2
31-10-2019 11,6     17,7     23,3 11,7 46 69 91 1.015 1.016 1.018 SSO 3,1 54,7 0,0
30-10-2019 9,3     15,8     24,1 14,8 42 79 100 1.015 1.017 1.019 SSW 1,8 32,2 0,2
29-10-2019 8,5     15,2     24,7 16,2 46 83 99 1.011 1.013 1.016 SSW 2,7 22,5 0,2
28-10-2019 10,9     14,3     18,9 8,0 72 90 100 1.012 1.014 1.016 SSW 1,3 14,5 0,0
27-10-2019 7,4     14,2     21,7 14,3 66 89 100 1.016 1.018 1.020 S 1,8 22,5 0,2
26-10-2019 6,5     13,6     21,7 15,2 55 85 99 1.016 1.018 1.020 SSW 3,7 22,5 0,0
25-10-2019 9,7     15,4     22,7 13,0 44 71 92 1.016 1.018 1.020 NNE 3,1 24,1 0,0
24-10-2019 4,7     11,7     17,6 12,9 52 74 98 1.006 1.012 1.018 NW 3,9 35,4 0,0
23-10-2019 5,7     10,6     15,9 10,2 49 82 100 1.001 1.003 1.007 WNW 2,1 27,4 0,4
22-10-2019 8,4     9,7     11,6 3,2 83 92 99 1.003 1.008 1.016 SSW 2,9 30,6 28,4
21-10-2019 4,3     10,3     16,3 12,0 61 83 96 1.011 1.014 1.016 SE 1,9 27,4 0,0
20-10-2019 9,6     14,2     17,8 8,2 48 75 100 1.001 1.005 1.011 WNW 2,7 32,2 4,4
19-10-2019 11,2     16,7     23,0 11,8 49 74 95 1.003 1.006 1.010 SSW 2,4 40,2 0,0
18-10-2019 10,9     17,1     24,8 13,9 46 74 91 1.009 1.012 1.015 SSW 2,6 30,6 0,0
17-10-2019 6,0     14,7     25,7 19,7 26 66 87 1.011 1.014 1.016 S 3,5 29,0 0,0
16-10-2019 5,1     13,0     24,4 19,3 29 65 88 1.013 1.016 1.019 S 2,1 22,5 0,0
15-10-2019 9,2     14,9     20,4 11,2 34 54 74 1.009 1.014 1.018 WNW 5,8 40,2 0,0
14-10-2019 15,6     18,4     22,1 6,5 49 85 98 1.007 1.010 1.013 NE 2,1 22,5 0,2
13-10-2019 14,2     19,6     25,4 11,2 64 86 100 1.011 1.013 1.015 SSW 2,1 25,7 0,0
Últims 13 mesos disponibles
10/2019 4,3 10,5 17,0 16,2 11,6 23,1 31,8 27,5 53 76 92 1.003 1.013 1.018 SSW 2,9 54,7 34,4
09/2019 10,9 14,4 18,9 19,9 20,8 26,9 32,6 21,7 62 80 91 1.007 1.014 1.023 SSW 2,9 46,7 71,8
08/2019 12,4 16,2 20,6 23,1 23,2 30,6 39,4 27,0 50 74 98 1.007 1.012 1.017 SE 3,2 40,2 53,2
07/2019 13,7 16,2 21,0 23,7 26,3 31,7 36,3 22,6 49 66 91 1.002 1.011 1.018 SE 3,6 40,2 52,8
06/2019 4,1 11,8 16,8 19,9 18,1 27,6 38,4 34,3 41 65 82 1.004 1.012 1.018 SE 3,6 48,3 3,4
05/2019 2,2 9,0 14,4 15,5 16,4 22,7 28,9 26,7 48 70 96 1.001 1.011 1.020 NNE 4,0 57,9 60,0
04/2019 2,2 6,8 11,8 12,2 12,6 18,1 26,0 23,8 40 64 95 995 1.009 1.021 SE 4,3 64,4 122,8
03/2019 -0,6 3,7 9,1 10,8 9,3 18,7 27,1 27,7 39 53 85 1.012 1.020 1.026 SE 3,9 48,3 21,2
02/2019 0,2
01/2019 1,0
Tots els anys disponibles
Temperatura (°C)
Humitat relativa (%)
Pressió (hPa)
Precipitació (mm)
Nota sobre les dades: s'avisa a l'usuari de la provisionalitat i no oficialitat d'aquestes dades
Logo AVAMET blanc
Web allotjada a Sollutia
Llicència de Creative CommonsLa web d'AVAMET i els seus continguts estan subjectes a una llicència de
Reconeixement - No Comercial - Compartir igual
Últimes estacions: Xàbia - Alt de la Granadella (Soci), Villena - Sierra de Salinas (Soci), Sueca - Centre (Inforatge), Xàbia - La Plana (Soci), Banyeres de Mariola - Molí Sol (Soci), Villena - Villa Ventín (Soci), Benissa - Convent (Soci), - - -